RJA702 OJAI-OEJN
Flight info
| Callsign | RJA702 |
|---|---|
| Flight time | 1h 45m |
| Altitude | 35000 |
| Route | MUNRA M449 WEJ T510 RBG B544 NOMDA |
| Aircraft | A21N/M-SDE2E3FGHIRWXY/LB1 |
Departure
| Time | 2026-05-07 07:42 |
|---|---|
| Airport | Queen Alia International Airport (OJAI) |
Arrival
| Time | 2026-05-07 09:28 |
|---|---|
| Airport | King Abdulaziz International Airport (OEJN) |
| Time | Latitude | Longitude | Altitude | Speed | Heading |
|---|---|---|---|---|---|
| 2026-05-07 06:59 | 31.72529 | 35.98573 | 2413 ft | 0 kts | 350° |
| 2026-05-07 07:35 | 31.72513 | 35.98576 | 2414 ft | 4 kts | 0° |
| 2026-05-07 07:35 | 31.72488 | 35.98570 | 2413 ft | 4 kts | 34° |
| 2026-05-07 07:35 | 31.72474 | 35.98549 | 2413 ft | 3 kts | 79° |
| 2026-05-07 07:35 | 31.72474 | 35.98546 | 2413 ft | 3 kts | 80° |
| 2026-05-07 07:37 | 31.72479 | 35.98579 | 2413 ft | 9 kts | 80° |
| 2026-05-07 07:38 | 31.72496 | 35.98704 | 2414 ft | 18 kts | 79° |
| 2026-05-07 07:38 | 31.72520 | 35.98854 | 2414 ft | 19 kts | 70° |
| 2026-05-07 07:38 | 31.72624 | 35.98894 | 2414 ft | 18 kts | 358° |
| 2026-05-07 07:38 | 31.72694 | 35.99005 | 2414 ft | 21 kts | 81° |
| 2026-05-07 07:39 | 31.72722 | 35.99178 | 2414 ft | 22 kts | 79° |
| 2026-05-07 07:39 | 31.72749 | 35.99365 | 2414 ft | 24 kts | 81° |
| 2026-05-07 07:39 | 31.72778 | 35.99568 | 2414 ft | 26 kts | 81° |
| 2026-05-07 07:39 | 31.72809 | 35.99781 | 2414 ft | 27 kts | 79° |
| 2026-05-07 07:40 | 31.72839 | 36.00006 | 2414 ft | 29 kts | 81° |
| 2026-05-07 07:40 | 31.72873 | 36.00242 | 2414 ft | 30 kts | 79° |
| 2026-05-07 07:40 | 31.72908 | 36.00478 | 2414 ft | 27 kts | 80° |
| 2026-05-07 07:40 | 31.72941 | 36.00696 | 2413 ft | 26 kts | 79° |
| 2026-05-07 07:41 | 31.73064 | 36.00772 | 2413 ft | 23 kts | 348° |
| 2026-05-07 07:41 | 31.73207 | 36.00723 | 2413 ft | 18 kts | 292° |
| 2026-05-07 07:41 | 31.73196 | 36.00562 | 2413 ft | 35 kts | 262° |
| 2026-05-07 07:41 | 31.73116 | 35.99977 | 2415 ft | 108 kts | 259° |
| 2026-05-07 07:42 | 31.72957 | 35.98899 | 2416 ft | 153 kts | 261° |
| 2026-05-07 07:42 | 31.72758 | 35.97540 | 2627 ft | 174 kts | 259° |
| 2026-05-07 07:42 | 31.72521 | 35.96128 | 3171 ft | 183 kts | 258° |
| 2026-05-07 07:42 | 31.72307 | 35.94642 | 3813 ft | 185 kts | 261° |
| 2026-05-07 07:43 | 31.72101 | 35.93156 | 4454 ft | 185 kts | 260° |
| 2026-05-07 07:43 | 31.71888 | 35.91642 | 5048 ft | 193 kts | 259° |
| 2026-05-07 07:43 | 31.71671 | 35.90035 | 5604 ft | 206 kts | 259° |
| 2026-05-07 07:43 | 31.71445 | 35.88313 | 6122 ft | 221 kts | 255° |
| 2026-05-07 07:44 | 31.70746 | 35.86646 | 6506 ft | 240 kts | 225° |
| 2026-05-07 07:44 | 31.69263 | 35.85630 | 6909 ft | 260 kts | 194° |
| 2026-05-07 07:44 | 31.67439 | 35.85335 | 7580 ft | 270 kts | 180° |
| 2026-05-07 07:44 | 31.65582 | 35.85629 | 8357 ft | 277 kts | 169° |
| 2026-05-07 07:45 | 31.63679 | 35.86139 | 9152 ft | 283 kts | 169° |
| 2026-05-07 07:45 | 31.61744 | 35.86667 | 9967 ft | 288 kts | 169° |
| 2026-05-07 07:45 | 31.59750 | 35.87199 | 10500 ft | 303 kts | 169° |
| 2026-05-07 07:45 | 31.57622 | 35.87758 | 10816 ft | 324 kts | 169° |
| 2026-05-07 07:46 | 31.55346 | 35.88352 | 11092 ft | 345 kts | 169° |
| 2026-05-07 07:46 | 31.52931 | 35.88980 | 11358 ft | 365 kts | 169° |
| 2026-05-07 07:46 | 31.50410 | 35.89637 | 11880 ft | 375 kts | 169° |
| 2026-05-07 07:46 | 31.47847 | 35.90302 | 12600 ft | 380 kts | 169° |
| 2026-05-07 07:47 | 31.45251 | 35.90974 | 13341 ft | 384 kts | 169° |
| 2026-05-07 07:47 | 31.42629 | 35.91649 | 14044 ft | 388 kts | 170° |
| 2026-05-07 07:47 | 31.39980 | 35.92329 | 14685 ft | 392 kts | 170° |
| 2026-05-07 07:47 | 31.37302 | 35.93017 | 15321 ft | 395 kts | 170° |
| 2026-05-07 07:48 | 31.34607 | 35.93709 | 15976 ft | 398 kts | 170° |
| 2026-05-07 07:48 | 31.31887 | 35.94406 | 16650 ft | 402 kts | 170° |
| 2026-05-07 07:48 | 31.29148 | 35.95109 | 17303 ft | 405 kts | 170° |
| 2026-05-07 07:48 | 31.26387 | 35.95819 | 17950 ft | 408 kts | 171° |
| 2026-05-07 07:49 | 31.23601 | 35.96534 | 18558 ft | 412 kts | 171° |
| 2026-05-07 07:49 | 31.20791 | 35.97252 | 19104 ft | 415 kts | 171° |
| 2026-05-07 07:49 | 31.17963 | 35.97976 | 19651 ft | 418 kts | 171° |
| 2026-05-07 07:49 | 31.15112 | 35.98706 | 20189 ft | 421 kts | 171° |
| 2026-05-07 07:50 | 31.12240 | 35.99440 | 20725 ft | 424 kts | 170° |
| 2026-05-07 07:50 | 31.09353 | 36.00178 | 21267 ft | 426 kts | 170° |
| 2026-05-07 07:50 | 31.06446 | 36.00919 | 21789 ft | 429 kts | 170° |
| 2026-05-07 07:50 | 31.03519 | 36.01668 | 22298 ft | 432 kts | 170° |
| 2026-05-07 07:51 | 31.00570 | 36.02422 | 22817 ft | 435 kts | 170° |
| 2026-05-07 07:51 | 30.97599 | 36.03177 | 23327 ft | 438 kts | 170° |
| 2026-05-07 07:51 | 30.94612 | 36.03934 | 23799 ft | 441 kts | 170° |
| 2026-05-07 07:51 | 30.91647 | 36.04688 | 24197 ft | 444 kts | 170° |
| 2026-05-07 07:52 | 30.88618 | 36.05459 | 24605 ft | 447 kts | 170° |
| 2026-05-07 07:52 | 30.85535 | 36.06247 | 25030 ft | 449 kts | 170° |
| 2026-05-07 07:52 | 30.82475 | 36.07028 | 25441 ft | 451 kts | 170° |
| 2026-05-07 07:52 | 30.79395 | 36.07807 | 25830 ft | 454 kts | 170° |
| 2026-05-07 07:53 | 30.76344 | 36.08579 | 26228 ft | 456 kts | 170° |
| 2026-05-07 07:53 | 30.73236 | 36.09366 | 26609 ft | 459 kts | 170° |
| 2026-05-07 07:53 | 30.70107 | 36.10158 | 26981 ft | 462 kts | 170° |
| 2026-05-07 07:53 | 30.66958 | 36.10955 | 27343 ft | 464 kts | 169° |
| 2026-05-07 07:54 | 30.63800 | 36.11757 | 27773 ft | 464 kts | 169° |
| 2026-05-07 07:54 | 30.60652 | 36.12554 | 28267 ft | 463 kts | 169° |
| 2026-05-07 07:54 | 30.57503 | 36.13349 | 28753 ft | 462 kts | 169° |
| 2026-05-07 07:54 | 30.54368 | 36.14140 | 29226 ft | 461 kts | 169° |
| 2026-05-07 07:55 | 30.52249 | 36.14674 | 29528 ft | 461 kts | 169° |
| 2026-05-07 07:55 | 30.49158 | 36.15453 | 29969 ft | 460 kts | 169° |
| 2026-05-07 07:55 | 30.44983 | 36.16506 | 30516 ft | 458 kts | 169° |
| 2026-05-07 07:55 | 30.42924 | 36.17025 | 30780 ft | 457 kts | 170° |
| 2026-05-07 07:56 | 30.39822 | 36.17808 | 31191 ft | 455 kts | 170° |
| 2026-05-07 07:56 | 30.36742 | 36.18585 | 31584 ft | 453 kts | 170° |
| 2026-05-07 07:56 | 30.33671 | 36.19357 | 31959 ft | 451 kts | 170° |
| 2026-05-07 07:56 | 30.30605 | 36.20123 | 32324 ft | 449 kts | 171° |
| 2026-05-07 07:57 | 30.27558 | 36.20885 | 32689 ft | 447 kts | 171° |
| 2026-05-07 07:57 | 30.24522 | 36.21643 | 33042 ft | 446 kts | 171° |
| 2026-05-07 07:57 | 30.21498 | 36.22397 | 33379 ft | 444 kts | 171° |
| 2026-05-07 07:57 | 30.18483 | 36.23149 | 33713 ft | 442 kts | 171° |
| 2026-05-07 07:58 | 30.15477 | 36.23901 | 34036 ft | 441 kts | 171° |
| 2026-05-07 07:58 | 30.12484 | 36.24650 | 34311 ft | 439 kts | 172° |
| 2026-05-07 07:58 | 30.09512 | 36.25396 | 34634 ft | 435 kts | 172° |
| 2026-05-07 07:58 | 30.06563 | 36.26135 | 34940 ft | 432 kts | 173° |
| 2026-05-07 07:59 | 30.03627 | 36.26866 | 35078 ft | 432 kts | 173° |
| 2026-05-07 07:59 | 29.97764 | 36.28329 | 35089 ft | 430 kts | 173° |
| 2026-05-07 08:00 | 29.91908 | 36.29789 | 35072 ft | 430 kts | 173° |
| 2026-05-07 08:00 | 29.86096 | 36.31235 | 35075 ft | 428 kts | 173° |
| 2026-05-07 08:01 | 29.80275 | 36.32686 | 35071 ft | 427 kts | 173° |
| 2026-05-07 08:01 | 29.74458 | 36.34130 | 35066 ft | 427 kts | 173° |
| 2026-05-07 08:02 | 29.68644 | 36.35570 | 35060 ft | 427 kts | 173° |
| 2026-05-07 08:02 | 29.62830 | 36.37010 | 35047 ft | 427 kts | 174° |
| 2026-05-07 08:03 | 29.57050 | 36.38442 | 35053 ft | 425 kts | 174° |
| 2026-05-07 08:03 | 29.51268 | 36.39873 | 35054 ft | 425 kts | 174° |
| 2026-05-07 08:04 | 29.45493 | 36.41300 | 35052 ft | 425 kts | 174° |
| 2026-05-07 08:04 | 29.39693 | 36.42465 | 35050 ft | 422 kts | 177° |
| 2026-05-07 08:05 | 29.33909 | 36.43504 | 35041 ft | 419 kts | 177° |
| 2026-05-07 08:05 | 29.28145 | 36.44544 | 35043 ft | 419 kts | 177° |
| 2026-05-07 08:06 | 29.22383 | 36.45589 | 35036 ft | 419 kts | 177° |
| 2026-05-07 08:06 | 29.16620 | 36.46630 | 35036 ft | 420 kts | 177° |
| 2026-05-07 08:07 | 29.10858 | 36.47678 | 35029 ft | 418 kts | 177° |
| 2026-05-07 08:07 | 29.05114 | 36.48715 | 35032 ft | 418 kts | 177° |
| 2026-05-07 08:08 | 28.99369 | 36.49750 | 35032 ft | 418 kts | 178° |
| 2026-05-07 08:08 | 28.93622 | 36.50782 | 35029 ft | 417 kts | 178° |
| 2026-05-07 08:09 | 28.87907 | 36.51812 | 35025 ft | 415 kts | 178° |
| 2026-05-07 08:09 | 28.82208 | 36.52838 | 35033 ft | 415 kts | 178° |
| 2026-05-07 08:10 | 28.76501 | 36.53863 | 35033 ft | 415 kts | 178° |
| 2026-05-07 08:10 | 28.70794 | 36.54889 | 35032 ft | 416 kts | 178° |
| 2026-05-07 08:11 | 28.65083 | 36.55914 | 35026 ft | 415 kts | 178° |
| 2026-05-07 08:11 | 28.59377 | 36.56937 | 35033 ft | 414 kts | 178° |
| 2026-05-07 08:12 | 28.53721 | 36.57949 | 35046 ft | 414 kts | 178° |
| 2026-05-07 08:12 | 28.48021 | 36.58963 | 35051 ft | 414 kts | 178° |
| 2026-05-07 08:13 | 28.42324 | 36.59977 | 35052 ft | 414 kts | 178° |
| 2026-05-07 08:13 | 28.36626 | 36.60909 | 35043 ft | 410 kts | 182° |
| 2026-05-07 08:14 | 28.30976 | 36.60762 | 35051 ft | 405 kts | 189° |
| 2026-05-07 08:14 | 28.25349 | 36.60420 | 35051 ft | 405 kts | 189° |
| 2026-05-07 08:15 | 28.19719 | 36.60094 | 35045 ft | 405 kts | 188° |
| 2026-05-07 08:15 | 28.14089 | 36.59773 | 35018 ft | 405 kts | 189° |
| 2026-05-07 08:16 | 28.08462 | 36.59452 | 35031 ft | 405 kts | 189° |
| 2026-05-07 08:16 | 28.02846 | 36.59134 | 35029 ft | 404 kts | 189° |
| 2026-05-07 08:17 | 27.97226 | 36.58814 | 35026 ft | 405 kts | 189° |
| 2026-05-07 08:17 | 27.91593 | 36.58496 | 35021 ft | 405 kts | 189° |
| 2026-05-07 08:18 | 27.85975 | 36.58176 | 35011 ft | 404 kts | 189° |
| 2026-05-07 08:18 | 27.80358 | 36.57856 | 35010 ft | 404 kts | 189° |
| 2026-05-07 08:19 | 27.74789 | 36.57536 | 34939 ft | 404 kts | 188° |
| 2026-05-07 08:19 | 27.69157 | 36.57217 | 34979 ft | 405 kts | 189° |
| 2026-05-07 08:20 | 27.63523 | 36.56904 | 34966 ft | 406 kts | 189° |
| 2026-05-07 08:20 | 27.57889 | 36.56590 | 34960 ft | 405 kts | 189° |
| 2026-05-07 08:21 | 27.52259 | 36.56271 | 34964 ft | 405 kts | 189° |
| 2026-05-07 08:21 | 27.46636 | 36.55953 | 34969 ft | 405 kts | 189° |
| 2026-05-07 08:22 | 27.41002 | 36.55638 | 34952 ft | 405 kts | 189° |
| 2026-05-07 08:22 | 27.35370 | 36.55322 | 34953 ft | 406 kts | 189° |
| 2026-05-07 08:23 | 27.29733 | 36.55005 | 34937 ft | 405 kts | 189° |
| 2026-05-07 08:23 | 27.24086 | 36.54691 | 34941 ft | 406 kts | 189° |
| 2026-05-07 08:24 | 27.18455 | 36.54378 | 34926 ft | 405 kts | 189° |
| 2026-05-07 08:24 | 27.12821 | 36.54065 | 34934 ft | 405 kts | 189° |
| 2026-05-07 08:25 | 27.07189 | 36.53752 | 34937 ft | 405 kts | 189° |
| 2026-05-07 08:25 | 27.01552 | 36.53439 | 34935 ft | 405 kts | 189° |
| 2026-05-07 08:26 | 26.93113 | 36.52974 | 34931 ft | 405 kts | 189° |
| 2026-05-07 08:26 | 26.87480 | 36.52665 | 34934 ft | 405 kts | 189° |
| 2026-05-07 08:27 | 26.81857 | 36.52353 | 34932 ft | 405 kts | 189° |
| 2026-05-07 08:27 | 26.76233 | 36.52038 | 34932 ft | 405 kts | 189° |
| 2026-05-07 08:28 | 26.70606 | 36.51726 | 34919 ft | 404 kts | 189° |
| 2026-05-07 08:28 | 26.64987 | 36.51416 | 34927 ft | 404 kts | 189° |
| 2026-05-07 08:29 | 26.59373 | 36.51106 | 34934 ft | 404 kts | 189° |
| 2026-05-07 08:29 | 26.53798 | 36.50799 | 34931 ft | 404 kts | 189° |
| 2026-05-07 08:30 | 26.48181 | 36.50489 | 34906 ft | 404 kts | 189° |
| 2026-05-07 08:30 | 26.42583 | 36.50181 | 34931 ft | 402 kts | 189° |
| 2026-05-07 08:31 | 26.36931 | 36.49872 | 34937 ft | 406 kts | 189° |
| 2026-05-07 08:31 | 26.31292 | 36.49565 | 34934 ft | 406 kts | 189° |
| 2026-05-07 08:32 | 26.25637 | 36.49343 | 34933 ft | 410 kts | 185° |
| 2026-05-07 08:32 | 26.19981 | 36.50832 | 34914 ft | 432 kts | 164° |
| 2026-05-07 08:33 | 26.17348 | 36.52546 | 34926 ft | 447 kts | 152° |
| 2026-05-07 08:33 | 26.15068 | 36.54988 | 34928 ft | 464 kts | 139° |
| 2026-05-07 08:33 | 26.13242 | 36.58020 | 34925 ft | 478 kts | 128° |
| 2026-05-07 08:33 | 26.11665 | 36.61289 | 34926 ft | 480 kts | 127° |
| 2026-05-07 08:34 | 26.08525 | 36.67843 | 34926 ft | 479 kts | 127° |
| 2026-05-07 08:34 | 26.05327 | 36.74345 | 34927 ft | 479 kts | 127° |
| 2026-05-07 08:35 | 26.02118 | 36.80847 | 34917 ft | 480 kts | 128° |
| 2026-05-07 08:35 | 25.98931 | 36.87301 | 34924 ft | 478 kts | 128° |
| 2026-05-07 08:36 | 25.95725 | 36.93778 | 34929 ft | 478 kts | 128° |
| 2026-05-07 08:36 | 25.92513 | 37.00244 | 34910 ft | 478 kts | 128° |
| 2026-05-07 08:37 | 25.89296 | 37.06706 | 34928 ft | 478 kts | 128° |
| 2026-05-07 08:37 | 25.86077 | 37.13168 | 34932 ft | 478 kts | 128° |
| 2026-05-07 08:38 | 25.82855 | 37.19631 | 34935 ft | 478 kts | 128° |
| 2026-05-07 08:38 | 25.79039 | 37.25443 | 34913 ft | 453 kts | 147° |
| 2026-05-07 08:39 | 25.76607 | 37.27567 | 34904 ft | 441 kts | 155° |
| 2026-05-07 08:39 | 25.74065 | 37.29463 | 34922 ft | 440 kts | 157° |
| 2026-05-07 08:39 | 25.68956 | 37.33234 | 34938 ft | 441 kts | 156° |
| 2026-05-07 08:40 | 25.63867 | 37.37064 | 34937 ft | 443 kts | 156° |
| 2026-05-07 08:40 | 25.58803 | 37.40891 | 34940 ft | 444 kts | 156° |
| 2026-05-07 08:41 | 25.53700 | 37.44740 | 34933 ft | 444 kts | 156° |
| 2026-05-07 08:41 | 25.48586 | 37.48586 | 34914 ft | 444 kts | 156° |
| 2026-05-07 08:42 | 25.43459 | 37.52436 | 34912 ft | 446 kts | 156° |
| 2026-05-07 08:42 | 25.38333 | 37.56287 | 34920 ft | 445 kts | 156° |
| 2026-05-07 08:43 | 25.33201 | 37.60131 | 34929 ft | 445 kts | 156° |
| 2026-05-07 08:43 | 25.28938 | 37.63318 | 34921 ft | 445 kts | 156° |
| 2026-05-07 08:44 | 25.23808 | 37.67161 | 34921 ft | 446 kts | 156° |
| 2026-05-07 08:44 | 25.18674 | 37.70997 | 34915 ft | 445 kts | 156° |
| 2026-05-07 08:45 | 25.13552 | 37.74835 | 34902 ft | 445 kts | 156° |
| 2026-05-07 08:45 | 25.08429 | 37.78665 | 34905 ft | 445 kts | 156° |
| 2026-05-07 08:46 | 25.03304 | 37.82495 | 34889 ft | 445 kts | 156° |
| 2026-05-07 08:46 | 24.98174 | 37.86326 | 34889 ft | 445 kts | 156° |
| 2026-05-07 08:47 | 24.93050 | 37.90147 | 34881 ft | 445 kts | 156° |
| 2026-05-07 08:47 | 24.87914 | 37.93971 | 34869 ft | 445 kts | 156° |
| 2026-05-07 08:48 | 24.82790 | 37.97782 | 34859 ft | 444 kts | 156° |
| 2026-05-07 08:48 | 24.77675 | 38.01586 | 34836 ft | 443 kts | 156° |
| 2026-05-07 08:49 | 24.72573 | 38.05373 | 34851 ft | 443 kts | 156° |
| 2026-05-07 08:49 | 24.67469 | 38.09162 | 34845 ft | 443 kts | 156° |
| 2026-05-07 08:50 | 24.62367 | 38.12948 | 34836 ft | 442 kts | 156° |
| 2026-05-07 08:50 | 24.57264 | 38.16727 | 34850 ft | 442 kts | 156° |
| 2026-05-07 08:51 | 24.52157 | 38.20500 | 34823 ft | 442 kts | 156° |
| 2026-05-07 08:51 | 24.47050 | 38.24272 | 34835 ft | 442 kts | 155° |
| 2026-05-07 08:52 | 24.41942 | 38.28043 | 34835 ft | 442 kts | 155° |
| 2026-05-07 08:52 | 24.36870 | 38.31782 | 34842 ft | 442 kts | 155° |
| 2026-05-07 08:53 | 24.31766 | 38.35546 | 34842 ft | 442 kts | 155° |
| 2026-05-07 08:53 | 24.26659 | 38.39305 | 34847 ft | 442 kts | 155° |
| 2026-05-07 08:54 | 24.21550 | 38.43055 | 34849 ft | 442 kts | 155° |
| 2026-05-07 08:54 | 24.16440 | 38.46803 | 34880 ft | 442 kts | 155° |
| 2026-05-07 08:55 | 24.11330 | 38.50544 | 34912 ft | 442 kts | 155° |
| 2026-05-07 08:55 | 24.06221 | 38.54289 | 34917 ft | 442 kts | 155° |
| 2026-05-07 08:56 | 24.01110 | 38.58026 | 34914 ft | 442 kts | 155° |
| 2026-05-07 08:56 | 23.95996 | 38.61760 | 34915 ft | 442 kts | 155° |
| 2026-05-07 08:57 | 23.91443 | 38.65085 | 34917 ft | 442 kts | 155° |
| 2026-05-07 08:57 | 23.86155 | 38.68275 | 34899 ft | 424 kts | 169° |
| 2026-05-07 08:58 | 23.80552 | 38.70273 | 34929 ft | 424 kts | 171° |
| 2026-05-07 08:58 | 23.74944 | 38.72290 | 34926 ft | 425 kts | 171° |
| 2026-05-07 08:59 | 23.69335 | 38.74338 | 34925 ft | 425 kts | 171° |
| 2026-05-07 08:59 | 23.63728 | 38.76390 | 34937 ft | 425 kts | 171° |
| 2026-05-07 09:00 | 23.58128 | 38.78445 | 34910 ft | 424 kts | 171° |
| 2026-05-07 09:00 | 23.52560 | 38.80480 | 34927 ft | 425 kts | 171° |
| 2026-05-07 09:01 | 23.46948 | 38.82534 | 34930 ft | 425 kts | 171° |
| 2026-05-07 09:01 | 23.41339 | 38.84584 | 34929 ft | 425 kts | 171° |
| 2026-05-07 09:02 | 23.35741 | 38.86628 | 34923 ft | 425 kts | 171° |
| 2026-05-07 09:02 | 23.30144 | 38.88674 | 34576 ft | 422 kts | 171° |
| 2026-05-07 09:03 | 23.27345 | 38.89691 | 34280 ft | 425 kts | 171° |
| 2026-05-07 09:03 | 23.24535 | 38.90712 | 34034 ft | 427 kts | 170° |
| 2026-05-07 09:03 | 23.21705 | 38.91742 | 33783 ft | 429 kts | 170° |
| 2026-05-07 09:03 | 23.18874 | 38.92772 | 33527 ft | 430 kts | 170° |
| 2026-05-07 09:04 | 23.16030 | 38.93806 | 33265 ft | 432 kts | 170° |
| 2026-05-07 09:04 | 23.13178 | 38.94842 | 33002 ft | 433 kts | 170° |
| 2026-05-07 09:04 | 23.10350 | 38.95869 | 32754 ft | 435 kts | 169° |
| 2026-05-07 09:04 | 23.07475 | 38.96913 | 32502 ft | 437 kts | 169° |
| 2026-05-07 09:05 | 23.04589 | 38.97964 | 32252 ft | 438 kts | 169° |
| 2026-05-07 09:05 | 23.01690 | 38.99018 | 31978 ft | 440 kts | 169° |
| 2026-05-07 09:05 | 22.98782 | 39.00074 | 31737 ft | 441 kts | 169° |
| 2026-05-07 09:05 | 22.95866 | 39.01131 | 31495 ft | 443 kts | 169° |
| 2026-05-07 09:06 | 22.92935 | 39.02193 | 31251 ft | 445 kts | 168° |
| 2026-05-07 09:06 | 22.89991 | 39.03259 | 31022 ft | 446 kts | 168° |
| 2026-05-07 09:06 | 22.87040 | 39.04327 | 30792 ft | 448 kts | 168° |
| 2026-05-07 09:06 | 22.84078 | 39.05402 | 30552 ft | 449 kts | 168° |
| 2026-05-07 09:07 | 22.81107 | 39.06480 | 30319 ft | 451 kts | 168° |
| 2026-05-07 09:07 | 22.78123 | 39.07557 | 30083 ft | 452 kts | 168° |
| 2026-05-07 09:07 | 22.75137 | 39.08632 | 29831 ft | 454 kts | 168° |
| 2026-05-07 09:07 | 22.72116 | 39.09590 | 29542 ft | 449 kts | 174° |
| 2026-05-07 09:08 | 22.69045 | 39.10002 | 29151 ft | 441 kts | 182° |
| 2026-05-07 09:08 | 22.66005 | 39.10068 | 28405 ft | 435 kts | 185° |
| 2026-05-07 09:08 | 22.62982 | 39.10078 | 27633 ft | 433 kts | 185° |
| 2026-05-07 09:08 | 22.59974 | 39.10096 | 26857 ft | 431 kts | 184° |
| 2026-05-07 09:09 | 22.56976 | 39.10126 | 26100 ft | 430 kts | 184° |
| 2026-05-07 09:09 | 22.53989 | 39.10163 | 25383 ft | 428 kts | 184° |
| 2026-05-07 09:09 | 22.51017 | 39.10205 | 24671 ft | 426 kts | 184° |
| 2026-05-07 09:09 | 22.48065 | 39.10248 | 23965 ft | 422 kts | 183° |
| 2026-05-07 09:10 | 22.45140 | 39.10290 | 23255 ft | 418 kts | 183° |
| 2026-05-07 09:10 | 22.42249 | 39.10331 | 22504 ft | 413 kts | 183° |
| 2026-05-07 09:10 | 22.39398 | 39.10372 | 21773 ft | 408 kts | 183° |
| 2026-05-07 09:10 | 22.36578 | 39.10412 | 21066 ft | 403 kts | 182° |
| 2026-05-07 09:11 | 22.33796 | 39.10451 | 20399 ft | 397 kts | 182° |
| 2026-05-07 09:11 | 22.31052 | 39.10489 | 19761 ft | 391 kts | 182° |
| 2026-05-07 09:11 | 22.28348 | 39.10527 | 19165 ft | 385 kts | 182° |
| 2026-05-07 09:11 | 22.25686 | 39.10565 | 18589 ft | 379 kts | 182° |
| 2026-05-07 09:12 | 22.23054 | 39.10600 | 18005 ft | 378 kts | 182° |
| 2026-05-07 09:12 | 22.20460 | 39.10636 | 17404 ft | 377 kts | 182° |
| 2026-05-07 09:12 | 22.17839 | 39.10672 | 16798 ft | 376 kts | 182° |
| 2026-05-07 09:12 | 22.15223 | 39.10709 | 16204 ft | 376 kts | 182° |
| 2026-05-07 09:13 | 22.12614 | 39.10746 | 15653 ft | 374 kts | 181° |
| 2026-05-07 09:13 | 22.10020 | 39.10856 | 15128 ft | 374 kts | 176° |
| 2026-05-07 09:13 | 22.07487 | 39.11538 | 14512 ft | 378 kts | 164° |
| 2026-05-07 09:13 | 22.05028 | 39.12519 | 13790 ft | 376 kts | 162° |
| 2026-05-07 09:14 | 22.02585 | 39.13522 | 13001 ft | 375 kts | 162° |
| 2026-05-07 09:14 | 22.00149 | 39.14511 | 12239 ft | 373 kts | 162° |
| 2026-05-07 09:14 | 21.97721 | 39.15483 | 11532 ft | 371 kts | 162° |
| 2026-05-07 09:14 | 21.95338 | 39.16430 | 11157 ft | 359 kts | 162° |
| 2026-05-07 09:15 | 21.93043 | 39.17340 | 10929 ft | 344 kts | 162° |
| 2026-05-07 09:15 | 21.90840 | 39.18212 | 10739 ft | 329 kts | 162° |
| 2026-05-07 09:15 | 21.88740 | 39.19043 | 10574 ft | 315 kts | 162° |
| 2026-05-07 09:15 | 21.86722 | 39.19840 | 10392 ft | 302 kts | 162° |
| 2026-05-07 09:16 | 21.84772 | 39.20608 | 10052 ft | 297 kts | 162° |
| 2026-05-07 09:16 | 21.82835 | 39.21369 | 9555 ft | 297 kts | 162° |
| 2026-05-07 09:16 | 21.80894 | 39.22134 | 9113 ft | 295 kts | 162° |
| 2026-05-07 09:16 | 21.78974 | 39.22886 | 8693 ft | 293 kts | 162° |
| 2026-05-07 09:17 | 21.77070 | 39.23631 | 8275 ft | 291 kts | 162° |
| 2026-05-07 09:17 | 21.75198 | 39.24363 | 7868 ft | 288 kts | 162° |
| 2026-05-07 09:17 | 21.73323 | 39.25098 | 7443 ft | 286 kts | 162° |
| 2026-05-07 09:17 | 21.71473 | 39.25826 | 7168 ft | 279 kts | 162° |
| 2026-05-07 09:18 | 21.69681 | 39.26533 | 6976 ft | 269 kts | 161° |
| 2026-05-07 09:18 | 21.67961 | 39.27211 | 6836 ft | 257 kts | 161° |
| 2026-05-07 09:18 | 21.66320 | 39.27858 | 6714 ft | 245 kts | 161° |
| 2026-05-07 09:18 | 21.64756 | 39.28479 | 6587 ft | 234 kts | 162° |
| 2026-05-07 09:19 | 21.63244 | 39.29076 | 6317 ft | 230 kts | 162° |
| 2026-05-07 09:19 | 21.61740 | 39.29670 | 5933 ft | 230 kts | 162° |
| 2026-05-07 09:19 | 21.60243 | 39.30255 | 5595 ft | 228 kts | 161° |
| 2026-05-07 09:19 | 21.58747 | 39.30841 | 5227 ft | 229 kts | 161° |
| 2026-05-07 09:20 | 21.57263 | 39.31422 | 4954 ft | 225 kts | 161° |
| 2026-05-07 09:20 | 21.55818 | 39.31988 | 4745 ft | 216 kts | 160° |
| 2026-05-07 09:20 | 21.54452 | 39.32523 | 4587 ft | 202 kts | 160° |
| 2026-05-07 09:20 | 21.53156 | 39.33027 | 4364 ft | 195 kts | 161° |
| 2026-05-07 09:21 | 21.51833 | 39.33289 | 3938 ft | 197 kts | 186° |
| 2026-05-07 09:21 | 21.50574 | 39.32718 | 3504 ft | 202 kts | 220° |
| 2026-05-07 09:21 | 21.49799 | 39.31465 | 3037 ft | 206 kts | 252° |
| 2026-05-07 09:21 | 21.49505 | 39.29974 | 2587 ft | 208 kts | 263° |
| 2026-05-07 09:22 | 21.49376 | 39.28430 | 2198 ft | 207 kts | 270° |
| 2026-05-07 09:22 | 21.49371 | 39.26900 | 2011 ft | 200 kts | 281° |
| 2026-05-07 09:22 | 21.49892 | 39.25548 | 1979 ft | 197 kts | 306° |
| 2026-05-07 09:22 | 21.50839 | 39.24518 | 1986 ft | 194 kts | 327° |
| 2026-05-07 09:23 | 21.52007 | 39.23832 | 1996 ft | 185 kts | 337° |
| 2026-05-07 09:23 | 21.53129 | 39.23388 | 2011 ft | 161 kts | 340° |
| 2026-05-07 09:23 | 21.54108 | 39.23004 | 2012 ft | 138 kts | 340° |
| 2026-05-07 09:23 | 21.54964 | 39.22668 | 2003 ft | 129 kts | 340° |
| 2026-05-07 09:24 | 21.55809 | 39.22335 | 1997 ft | 133 kts | 339° |
| 2026-05-07 09:24 | 21.56675 | 39.21993 | 2004 ft | 131 kts | 340° |
| 2026-05-07 09:24 | 21.57520 | 39.21659 | 1915 ft | 129 kts | 339° |
| 2026-05-07 09:24 | 21.58365 | 39.21325 | 1752 ft | 128 kts | 340° |
| 2026-05-07 09:25 | 21.59191 | 39.20998 | 1600 ft | 122 kts | 339° |
| 2026-05-07 09:25 | 21.59990 | 39.20682 | 1434 ft | 123 kts | 338° |
| 2026-05-07 09:25 | 21.60803 | 39.20361 | 1261 ft | 126 kts | 337° |
| 2026-05-07 09:25 | 21.61596 | 39.20047 | 1111 ft | 122 kts | 337° |
| 2026-05-07 09:26 | 21.62394 | 39.19732 | 954 ft | 124 kts | 339° |
| 2026-05-07 09:26 | 21.63207 | 39.19411 | 800 ft | 128 kts | 340° |
| 2026-05-07 09:26 | 21.64034 | 39.19084 | 671 ft | 123 kts | 338° |
| 2026-05-07 09:26 | 21.64847 | 39.18762 | 480 ft | 129 kts | 341° |
| 2026-05-07 09:27 | 21.65674 | 39.18432 | 334 ft | 127 kts | 339° |
| 2026-05-07 09:27 | 21.66501 | 39.18102 | 175 ft | 123 kts | 341° |
| 2026-05-07 09:27 | 21.68034 | 39.17505 | 36 ft | 88 kts | 339° |
| 2026-05-07 09:28 | 21.68415 | 39.17356 | 31 ft | 35 kts | 338° |
| 2026-05-07 09:28 | 21.68620 | 39.17273 | 32 ft | 29 kts | 339° |
| 2026-05-07 09:28 | 21.68799 | 39.17170 | 32 ft | 24 kts | 320° |
| 2026-05-07 09:28 | 21.68904 | 39.17048 | 35 ft | 22 kts | 309° |
| 2026-05-07 09:29 | 21.68936 | 39.16924 | 35 ft | 22 kts | 182° |
| 2026-05-07 09:29 | 21.68799 | 39.16966 | 37 ft | 20 kts | 164° |
| 2026-05-07 09:29 | 21.68693 | 39.17007 | 34 ft | 17 kts | 161° |
| 2026-05-07 09:29 | 21.68579 | 39.17051 | 32 ft | 18 kts | 159° |
| 2026-05-07 09:30 | 21.68456 | 39.17102 | 33 ft | 19 kts | 160° |
| 2026-05-07 09:30 | 21.68327 | 39.17154 | 32 ft | 21 kts | 159° |
| 2026-05-07 09:30 | 21.68182 | 39.17215 | 35 ft | 24 kts | 161° |
| 2026-05-07 09:30 | 21.68051 | 39.17260 | 36 ft | 18 kts | 173° |
| 2026-05-07 09:31 | 21.67967 | 39.17165 | 35 ft | 20 kts | 250° |
| 2026-05-07 09:31 | 21.67934 | 39.17069 | 35 ft | 0 kts | 249° |
| 2026-05-07 09:31 | 21.67931 | 39.17062 | 35 ft | 6 kts | 249° |
| 2026-05-07 09:31 | 21.67887 | 39.16931 | 35 ft | 22 kts | 250° |
| 2026-05-07 09:32 | 21.67828 | 39.16767 | 35 ft | 24 kts | 250° |
| 2026-05-07 09:32 | 21.67767 | 39.16587 | 35 ft | 27 kts | 250° |
| 2026-05-07 09:32 | 21.67724 | 39.16461 | 35 ft | 28 kts | 250° |
| 2026-05-07 09:32 | 21.67641 | 39.16217 | 36 ft | 12 kts | 251° |
| 2026-05-07 09:33 | 21.67571 | 39.16218 | 36 ft | 13 kts | 170° |
| 2026-05-07 09:33 | 21.67468 | 39.16253 | 36 ft | 18 kts | 157° |
| 2026-05-07 09:33 | 21.67386 | 39.16290 | 36 ft | 20 kts | 159° |
| 2026-05-07 09:33 | 21.67200 | 39.16363 | 36 ft | 23 kts | 161° |
| 2026-05-07 09:34 | 21.67042 | 39.16422 | 36 ft | 25 kts | 161° |
| 2026-05-07 09:34 | 21.66948 | 39.16458 | 36 ft | 20 kts | 159° |
| 2026-05-07 09:34 | 21.66812 | 39.16514 | 36 ft | 21 kts | 160° |
| 2026-05-07 09:34 | 21.66698 | 39.16558 | 36 ft | 13 kts | 160° |
| 2026-05-07 09:35 | 21.66651 | 39.16634 | 36 ft | 15 kts | 89° |
| 2026-05-07 09:35 | 21.66671 | 39.16740 | 36 ft | 14 kts | 70° |
| 2026-05-07 09:35 | 21.66700 | 39.16821 | 36 ft | 7 kts | 68° |
| 2026-05-07 09:35 | 21.66715 | 39.16878 | 36 ft | 10 kts | 90° |
| 2026-05-07 09:36 | 21.66674 | 39.16928 | 36 ft | 5 kts | 156° |
| 2026-05-07 09:36 | 21.66631 | 39.16945 | 36 ft | 8 kts | 160° |
| 2026-05-07 09:36 | 21.66592 | 39.16966 | 36 ft | 7 kts | 114° |
| 2026-05-07 09:36 | 21.66610 | 39.17009 | 36 ft | 6 kts | 62° |
| 2026-05-07 09:37 | 21.66626 | 39.17037 | 36 ft | 1 kts | 56° |
| 2026-05-07 09:37 | 21.66635 | 39.17051 | 36 ft | 0 kts | 56° |
| 2026-05-07 09:37 | 21.66636 | 39.17053 | 36 ft | 0 kts | 55° |